Time;durP1;ratioP1;P1;durP2;ratioP2;P2;SDS_P1;SDS_P2;PMS_P1;PMS_P2;Temp;Humidity;BMP_temperature;BMP_pressure;BME280_temperature;BME280_humidity;BME280_pressure;Samples;Min_cycle;Max_cycle;Signal;HPM_P1;HPM_P2
2021/08/30 00:01:25;;;;;;;25.10;14.80;;;18.70;99.90;;;;;;5143722;28;20173;-66
2021/08/30 00:03:51;;;;;;;25.33;14.93;;;18.70;99.90;;;;;;5146477;28;20193;-66
2021/08/30 00:06:16;;;;;;;20.35;14.43;;;18.80;99.90;;;;;;5146673;28;20162;-66
2021/08/30 00:08:42;;;;;;;25.65;15.73;;;18.70;99.90;;;;;;5146633;28;20235;-66
2021/08/30 00:11:09;;;;;;;19.40;13.35;;;18.70;99.90;;;;;;5144150;28;20177;-66
2021/08/30 00:13:34;;;;;;;22.15;14.27;;;18.70;99.90;;;;;;5145396;28;20162;-66
2021/08/30 00:16:00;;;;;;;22.23;14.70;;;18.70;99.90;;;;;;5146052;28;20187;-66
2021/08/30 00:18:26;;;;;;;19.17;14.00;;;18.80;99.90;;;;;;5146644;27;20175;-66
2021/08/30 00:20:52;;;;;;;19.45;14.60;;;18.80;99.90;;;;;;5145401;27;20170;-66
2021/08/30 00:23:18;;;;;;;17.92;13.50;;;18.70;99.90;;;;;;5144980;27;20194;-66
2021/08/30 00:25:44;;;;;;;19.27;13.70;;;18.60;99.90;;;;;;5146445;27;20221;-66
2021/08/30 00:28:10;;;;;;;27.27;15.15;;;18.60;99.90;;;;;;5145315;28;20190;-66
2021/08/30 00:30:36;;;;;;;22.70;14.98;;;18.60;99.90;;;;;;5148998;27;20166;-66
2021/08/30 00:33:02;;;;;;;20.70;15.15;;;18.60;99.90;;;;;;5147496;27;20188;-66
2021/08/30 00:35:27;;;;;;;24.33;15.18;;;18.70;99.90;;;;;;5149146;27;20162;-66
2021/08/30 00:37:53;;;;;;;22.52;15.32;;;18.80;99.90;;;;;;5148725;27;20172;-66
2021/08/30 00:40:19;;;;;;;23.15;16.65;;;18.70;99.90;;;;;;5148914;27;20190;-66
2021/08/30 00:42:45;;;;;;;24.52;14.88;;;18.60;99.90;;;;;;5147312;27;20182;-66
2021/08/30 00:45:12;;;;;;;25.48;15.70;;;18.70;99.90;;;;;;5150349;27;20200;-66
2021/08/30 00:47:39;;;;;;;25.45;16.48;;;18.70;99.90;;;;;;5148613;27;20249;-66
2021/08/30 00:50:06;;;;;;;24.90;16.00;;;18.70;99.90;;;;;;5150039;27;20242;-66
2021/08/30 00:52:32;;;;;;;23.83;15.50;;;18.70;99.90;;;;;;5147446;27;20210;-66
2021/08/30 00:54:59;;;;;;;27.90;15.55;;;18.70;99.90;;;;;;5149869;27;20184;-66
2021/08/30 00:57:25;;;;;;;23.23;15.45;;;18.70;99.90;;;;;;5149937;27;20641;-66
2021/08/30 00:59:51;;;;;;;27.10;15.15;;;18.70;99.90;;;;;;5149662;27;20240;-66
2021/08/30 01:02:17;;;;;;;19.45;15.15;;;18.70;99.90;;;;;;5146400;27;20170;-66
2021/08/30 01:04:44;;;;;;;27.17;16.33;;;18.60;99.90;;;;;;5148466;27;20154;-66
2021/08/30 01:07:33;;;;;;;26.15;15.60;;;18.70;99.90;;;;;;5149006;27;20181;-66
2021/08/30 01:10:10;;;;;;;26.10;15.93;;;18.70;99.90;;;;;;5147465;27;20224;-66
2021/08/30 01:12:48;;;;;;;28.02;15.55;;;18.60;99.90;;;;;;5146033;27;20200;-66
2021/08/30 01:15:22;;;;;;;25.45;15.50;;;18.60;99.90;;;;;;5148934;27;20173;-66
2021/08/30 01:17:51;;;;;;;29.73;14.48;;;18.60;99.90;;;;;;5148362;27;20534;-66
2021/08/30 01:20:35;;;;;;;21.58;14.38;;;18.50;99.90;;;;;;5148612;27;20176;-66
2021/08/30 01:23:01;;;;;;;25.55;14.70;;;18.50;99.90;;;;;;5146022;27;20186;-66
2021/08/30 01:25:30;;;;;;;19.58;14.45;;;18.40;99.90;;;;;;5148568;27;20170;-66
2021/08/30 01:27:56;;;;;;;26.52;15.45;;;18.40;99.90;;;;;;5148578;27;20620;-66
2021/08/30 01:30:25;;;;;;;24.17;15.32;;;18.40;99.90;;;;;;5148270;27;20211;-66
2021/08/30 01:32:57;;;;;;;25.10;15.18;;;18.40;99.90;;;;;;5144021;27;20170;-66
2021/08/30 01:35:25;;;;;;;28.60;15.55;;;18.40;99.90;;;;;;5148327;27;20626;-66
2021/08/30 01:37:55;;;;;;;31.02;14.80;;;18.50;99.90;;;;;;5148378;27;20177;-66
2021/08/30 01:40:23;;;;;;;30.33;15.95;;;18.50;99.90;;;;;;5147763;27;20219;-66
2021/08/30 01:42:52;;;;;;;22.63;15.63;;;18.60;99.90;;;;;;5144919;27;20196;-66
2021/08/30 01:45:20;;;;;;;30.52;17.05;;;18.60;99.90;;;;;;5148467;27;20166;-66
2021/08/30 01:47:48;;;;;;;25.25;15.10;;;18.50;99.90;;;;;;5147767;27;20249;-66
2021/08/30 01:50:17;;;;;;;26.75;14.65;;;18.50;99.90;;;;;;5148252;27;20230;-66
2021/08/30 01:52:43;;;;;;;24.35;14.85;;;18.50;99.90;;;;;;5145341;27;20187;-66
2021/08/30 02:00:43;;;;;;;27.80;15.00;;;18.70;99.90;;;;;;5147587;27;20174;-66
2021/08/30 02:03:19;;;;;;;25.80;14.80;;;18.60;99.90;;;;;;5145245;27;20245;-66
2021/08/30 02:05:55;;;;;;;22.15;14.23;;;18.60;99.90;;;;;;5147733;27;20180;-66
2021/08/30 02:08:23;;;;;;;28.42;14.73;;;18.60;99.90;;;;;;5148427;27;20161;-66
2021/08/30 02:10:54;;;;;;;23.58;14.23;;;18.60;99.90;;;;;;5147742;27;20168;-66
2021/08/30 02:13:22;;;;;;;22.33;13.77;;;18.60;99.90;;;;;;5147443;27;20194;-66
2021/08/30 02:15:48;;;;;;;24.58;15.02;;;18.60;99.90;;;;;;5146610;27;20257;-66
2021/08/30 02:18:24;;;;;;;30.08;14.35;;;18.80;99.90;;;;;;5148439;27;20180;-66
2021/08/30 02:21:12;;;;;;;31.38;14.32;;;18.70;99.90;;;;;;5146054;27;20575;-66
2021/08/30 02:23:46;;;;;;;21.65;13.48;;;18.70;99.90;;;;;;5148372;27;20205;-66
2021/08/30 02:26:20;;;;;;;22.10;13.48;;;18.60;99.90;;;;;;5148331;27;20165;-66
2021/08/30 02:28:47;;;;;;;30.50;13.45;;;18.60;99.90;;;;;;5148275;27;20180;-66
2021/08/30 02:31:15;;;;;;;28.73;14.82;;;18.50;99.90;;;;;;5145181;27;20174;-66
2021/08/30 02:33:42;;;;;;;25.77;14.85;;;18.50;99.90;;;;;;5148123;27;20193;-66
2021/08/30 02:36:09;;;;;;;20.63;13.48;;;18.60;99.90;;;;;;5148283;27;20221;-66
2021/08/30 02:38:36;;;;;;;25.13;14.82;;;18.60;99.90;;;;;;5148263;27;20245;-66
2021/08/30 02:41:03;;;;;;;28.85;15.60;;;18.70;99.90;;;;;;5145652;27;20257;-66
2021/08/30 02:43:30;;;;;;;33.70;15.15;;;18.70;99.90;;;;;;5147641;27;20181;-66
2021/08/30 02:45:56;;;;;;;24.67;14.02;;;18.60;99.90;;;;;;5147427;27;20183;-66
2021/08/30 02:48:24;;;;;;;24.05;13.60;;;18.50;99.90;;;;;;5147900;27;20163;-66
2021/08/30 02:50:52;;;;;;;18.60;13.23;;;18.50;99.90;;;;;;5146855;27;20233;-66
2021/08/30 02:53:18;;;;;;;24.20;15.07;;;18.50;99.90;;;;;;5146243;27;20237;-67
2021/08/30 02:55:44;;;;;;;29.15;14.55;;;18.50;99.90;;;;;;5147577;27;20181;-66
2021/08/30 02:58:10;;;;;;;24.27;13.93;;;18.60;99.90;;;;;;5147772;27;20652;-66
2021/08/30 03:00:36;;;;;;;20.25;13.40;;;18.60;99.90;;;;;;5145910;27;20158;-66
2021/08/30 03:03:03;;;;;;;30.38;14.55;;;18.50;99.90;;;;;;5144571;27;20200;-66
2021/08/30 03:05:31;;;;;;;22.27;14.20;;;18.70;99.90;;;;;;5147547;27;20546;-66
2021/08/30 03:07:57;;;;;;;22.35;12.98;;;18.60;99.90;;;;;;5147412;27;20196;-66
2021/08/30 03:10:23;;;;;;;21.92;14.15;;;18.50;99.90;;;;;;5147155;27;20231;-66
2021/08/30 03:12:50;;;;;;;22.75;13.05;;;18.50;99.90;;;;;;5144578;27;20169;-66
2021/08/30 03:15:19;;;;;;;22.33;13.50;;;18.50;99.90;;;;;;5147447;27;20158;-66
2021/08/30 03:17:46;;;;;;;20.20;12.38;;;18.60;99.90;;;;;;5146898;27;20177;-66
2021/08/30 03:20:17;;;;;;;24.20;12.55;;;18.50;99.90;;;;;;5147503;27;20161;-66
2021/08/30 03:22:43;;;;;;;22.50;13.13;;;18.50;99.90;;;;;;5144437;27;20604;-66
2021/08/30 03:25:14;;;;;;;20.95;13.60;;;18.50;99.90;;;;;;5147357;27;20150;-66
2021/08/30 03:27:42;;;;;;;25.40;13.32;;;18.50;99.90;;;;;;5147363;27;20244;-66
2021/08/30 03:30:09;;;;;;;22.13;13.20;;;18.50;99.90;;;;;;5147601;27;20154;-66
2021/08/30 03:32:36;;;;;;;23.80;14.60;;;18.50;99.90;;;;;;5144007;27;20166;-66
2021/08/30 03:35:02;;;;;;;22.05;14.75;;;18.50;99.90;;;;;;5147017;27;20154;-66
2021/08/30 03:37:28;;;;;;;19.63;15.00;;;18.50;99.90;;;;;;5147159;27;20173;-66
2021/08/30 03:39:55;;;;;;;25.70;14.27;;;18.50;99.90;;;;;;5146956;27;20162;-66
2021/08/30 03:42:21;;;;;;;19.00;14.40;;;18.50;99.90;;;;;;5144128;27;20162;-66
2021/08/30 03:44:47;;;;;;;19.75;14.15;;;18.40;99.90;;;;;;5147067;27;20158;-66
2021/08/30 03:47:13;;;;;;;21.77;14.57;;;18.40;99.90;;;;;;5146785;27;20162;-66
2021/08/30 03:49:40;;;;;;;23.10;15.68;;;18.40;99.90;;;;;;5147065;27;20164;-66
2021/08/30 03:52:08;;;;;;;23.00;14.30;;;18.50;99.90;;;;;;5144067;27;20158;-66
2021/08/30 03:54:34;;;;;;;22.55;14.88;;;18.40;99.90;;;;;;5146874;27;20248;-66
2021/08/30 03:57:00;;;;;;;21.55;14.98;;;18.40;99.90;;;;;;5145330;28;20643;-66
2021/08/30 03:59:33;;;;;;;19.60;14.20;;;18.40;99.90;;;;;;5147016;28;20159;-66
2021/08/30 04:01:59;;;;;;;21.00;14.32;;;18.50;99.90;;;;;;5143523;27;20167;-66
2021/08/30 04:04:26;;;;;;;21.95;15.90;;;18.50;99.90;;;;;;5147824;27;20220;-66
2021/08/30 04:06:54;;;;;;;20.85;14.70;;;18.50;99.90;;;;;;5149437;27;20643;-66
2021/08/30 04:09:21;;;;;;;25.17;15.90;;;18.50;99.90;;;;;;5150810;27;20215;-66
2021/08/30 04:11:48;;;;;;;23.10;15.80;;;18.50;99.90;;;;;;5147866;27;20190;-66
2021/08/30 04:14:14;;;;;;;24.77;15.13;;;18.40;99.90;;;;;;5150924;27;20165;-66
2021/08/30 04:16:41;;;;;;;25.42;15.13;;;18.50;99.90;;;;;;5150477;27;20166;-66
2021/08/30 04:19:07;;;;;;;19.25;15.25;;;18.40;99.90;;;;;;5150726;27;20165;-66
2021/08/30 04:21:33;;;;;;;23.88;15.63;;;18.50;99.90;;;;;;5147821;27;20314;-66
2021/08/30 04:23:59;;;;;;;28.27;16.15;;;18.50;99.90;;;;;;5150313;27;20240;-66
2021/08/30 04:26:24;;;;;;;26.02;16.08;;;18.50;99.90;;;;;;5150457;27;20154;-66
2021/08/30 04:28:50;;;;;;;24.42;15.82;;;18.50;99.90;;;;;;5148937;27;20165;-66
2021/08/30 04:31:16;;;;;;;24.00;16.55;;;18.50;99.90;;;;;;5147448;27;20169;-66
2021/08/30 04:33:41;;;;;;;29.60;15.68;;;18.50;99.90;;;;;;5150292;27;20169;-66
2021/08/30 04:36:07;;;;;;;26.05;16.23;;;18.50;99.90;;;;;;5150200;27;20214;-66
2021/08/30 04:38:33;;;;;;;25.23;16.00;;;18.40;99.90;;;;;;5150409;27;20181;-66
2021/08/30 04:40:59;;;;;;;21.92;14.88;;;18.50;99.90;;;;;;5148076;27;20189;-66
2021/08/30 04:43:25;;;;;;;23.27;14.95;;;18.50;99.90;;;;;;5149654;27;20192;-66
2021/08/30 04:45:50;;;;;;;22.60;15.05;;;18.50;99.90;;;;;;5149656;27;20162;-66
2021/08/30 04:48:16;;;;;;;22.65;14.88;;;18.50;99.90;;;;;;5150078;27;20162;-66
2021/08/30 04:50:42;;;;;;;19.95;13.43;;;18.50;99.90;;;;;;5149865;27;20162;-66
2021/08/30 04:53:08;;;;;;;23.00;14.73;;;18.40;99.90;;;;;;5147741;27;20209;-66
2021/08/30 04:55:34;;;;;;;20.52;14.00;;;18.40;99.90;;;;;;5149933;27;20174;-65
2021/08/30 04:58:01;;;;;;;21.08;14.50;;;18.40;99.90;;;;;;5148572;27;20172;-66
2021/08/30 05:00:27;;;;;;;20.92;13.50;;;18.40;99.90;;;;;;5149925;27;20182;-66
2021/08/30 05:02:53;;;;;;;20.38;12.50;;;18.40;99.90;;;;;;5146169;27;20213;-66
2021/08/30 05:05:19;;;;;;;23.10;13.75;;;18.50;99.90;;;;;;5148999;27;20154;-66
2021/08/30 05:07:45;;;;;;;14.70;12.73;;;18.40;99.90;;;;;;5149580;27;20163;-68
2021/08/30 05:10:10;;;;;;;17.33;12.68;;;18.40;99.90;;;;;;5149349;27;20202;-66
2021/08/30 05:12:36;;;;;;;24.88;13.40;;;18.30;99.90;;;;;;5146963;27;20245;-66
2021/08/30 05:15:02;;;;;;;22.92;13.00;;;18.30;99.90;;;;;;5149324;27;20168;-66
2021/08/30 05:17:28;;;;;;;22.45;13.52;;;18.20;99.90;;;;;;5149314;27;20162;-66
2021/08/30 05:19:53;;;;;;;25.58;14.60;;;18.20;99.90;;;;;;5149346;27;20168;-66
2021/08/30 05:22:19;;;;;;;20.98;13.63;;;18.30;99.90;;;;;;5146643;27;20166;-66
2021/08/30 05:24:46;;;;;;;17.42;11.90;;;18.20;99.90;;;;;;5149184;27;20197;-66
2021/08/30 05:27:12;;;;;;;14.23;11.23;;;18.20;99.90;;;;;;5149233;27;20177;-66
2021/08/30 05:29:37;;;;;;;20.13;12.93;;;18.20;99.90;;;;;;5149454;27;20166;-66
2021/08/30 05:32:03;;;;;;;22.17;13.20;;;18.10;99.90;;;;;;5146098;27;20196;-66
2021/08/30 05:34:29;;;;;;;18.38;12.85;;;18.20;99.90;;;;;;5149315;27;20166;-66
2021/08/30 05:36:54;;;;;;;19.35;12.52;;;18.30;99.90;;;;;;5149030;27;20434;-66
2021/08/30 05:39:20;;;;;;;23.95;13.75;;;18.40;99.90;;;;;;5148916;27;20240;-66
2021/08/30 05:41:45;;;;;;;21.63;13.10;;;18.50;99.90;;;;;;5145988;27;20194;-66
2021/08/30 05:44:11;;;;;;;18.00;12.10;;;18.50;99.90;;;;;;5148966;27;20245;-66
2021/08/30 05:46:37;;;;;;;14.40;11.23;;;18.60;99.90;;;;;;5148374;27;20166;-66
2021/08/30 05:49:03;;;;;;;17.40;12.00;;;18.50;99.90;;;;;;5147811;27;20364;-66
2021/08/30 05:51:28;;;;;;;18.60;11.95;;;18.50;99.90;;;;;;5145796;27;20370;-66
2021/08/30 05:53:54;;;;;;;15.30;10.90;;;18.60;99.90;;;;;;5147422;27;20165;-65
2021/08/30 05:56:20;;;;;;;14.90;10.65;;;18.50;99.90;;;;;;5148798;27;20165;-65
2021/08/30 05:58:45;;;;;;;17.88;11.35;;;18.60;99.90;;;;;;5148674;27;20181;-66
2021/08/30 06:01:11;;;;;;;18.38;11.55;;;18.60;99.90;;;;;;5145484;27;20714;-66
2021/08/30 06:03:37;;;;;;;19.35;11.45;;;18.70;99.90;;;;;;5148541;27;20194;-66
2021/08/30 06:06:03;;;;;;;17.20;11.30;;;18.70;99.90;;;;;;5148773;27;20176;-66
2021/08/30 06:08:29;;;;;;;15.65;10.90;;;18.70;99.90;;;;;;5148332;27;20169;-66
2021/08/30 06:10:57;;;;;;;18.92;11.40;;;18.70;99.90;;;;;;5146620;27;20427;-66
2021/08/30 06:13:23;;;;;;;16.90;11.30;;;18.90;99.90;;;;;;5147403;27;20150;-66
2021/08/30 06:15:49;;;;;;;14.23;11.02;;;19.10;99.90;;;;;;5147841;27;20186;-66
2021/08/30 06:18:15;;;;;;;18.83;11.00;;;19.10;99.90;;;;;;5148086;27;20188;-65
2021/08/30 06:20:41;;;;;;;16.08;11.52;;;19.00;99.90;;;;;;5148248;27;20162;-66
2021/08/30 06:23:07;;;;;;;17.27;11.32;;;18.80;99.90;;;;;;5145685;27;20290;-66
2021/08/30 06:25:33;;;;;;;16.65;11.00;;;18.80;99.90;;;;;;5148357;27;20154;-66
2021/08/30 06:27:59;;;;;;;14.73;10.18;;;18.90;99.90;;;;;;5147379;27;20715;-65
2021/08/30 06:30:24;;;;;;;21.00;11.25;;;18.90;99.90;;;;;;5147911;27;20184;-65
2021/08/30 06:32:50;;;;;;;15.73;11.65;;;19.00;99.90;;;;;;5144956;27;20170;-65
2021/08/30 06:35:16;;;;;;;16.08;11.88;;;19.20;99.90;;;;;;5148161;27;20158;-66
2021/08/30 06:37:42;;;;;;;18.33;12.15;;;19.00;99.90;;;;;;5147915;27;20162;-66
2021/08/30 06:40:09;;;;;;;17.70;10.82;;;19.00;99.90;;;;;;5147795;27;20162;-66
2021/08/30 06:42:35;;;;;;;20.05;11.77;;;19.00;99.90;;;;;;5144941;27;20227;-66
2021/08/30 06:45:01;;;;;;;16.77;12.45;;;19.00;99.90;;;;;;5148131;27;20154;-65
2021/08/30 06:47:27;;;;;;;22.55;13.00;;;19.10;99.90;;;;;;5147382;27;20166;-65
2021/08/30 06:49:53;;;;;;;18.80;13.05;;;19.20;99.90;;;;;;5147650;27;20182;-66
2021/08/30 06:52:18;;;;;;;20.38;12.52;;;19.40;99.90;;;;;;5143438;27;20181;-65
2021/08/30 06:54:44;;;;;;;19.95;12.88;;;19.50;99.90;;;;;;5147523;27;20235;-66
2021/08/30 06:57:09;;;;;;;17.77;13.07;;;19.40;99.90;;;;;;5147451;27;20168;-65
2021/08/30 06:59:35;;;;;;;19.40;12.70;;;19.50;99.90;;;;;;5147523;27;20182;-66
2021/08/30 07:02:01;;;;;;;19.77;12.68;;;19.50;99.90;;;;;;5143062;27;20200;-65
2021/08/30 07:04:26;;;;;;;20.80;12.60;;;19.60;99.90;;;;;;5147379;27;20197;-66
2021/08/30 07:06:52;;;;;;;14.90;12.70;;;19.40;99.90;;;;;;5147182;27;20210;-65
2021/08/30 07:09:18;;;;;;;20.20;14.27;;;19.40;99.90;;;;;;5146964;27;20227;-65
2021/08/30 07:11:43;;;;;;;18.83;12.98;;;19.40;99.90;;;;;;5142617;27;20237;-65
2021/08/30 07:14:09;;;;;;;29.05;14.55;;;19.30;99.90;;;;;;5146193;27;20170;-66
2021/08/30 07:16:35;;;;;;;24.63;14.63;;;19.30;99.90;;;;;;5145605;27;20173;-66
2021/08/30 07:19:00;;;;;;;21.08;14.63;;;19.40;99.90;;;;;;5146916;27;20505;-66
2021/08/30 07:21:28;;;;;;;27.50;16.58;;;19.40;99.90;;;;;;5143072;27;20285;-66
2021/08/30 07:23:55;;;;;;;24.00;16.48;;;19.70;99.90;;;;;;5146621;27;20250;-66
2021/08/30 07:26:20;;;;;;;25.05;16.17;;;19.80;99.90;;;;;;5147127;27;20202;-66
2021/08/30 07:28:46;;;;;;;23.02;16.15;;;19.90;99.90;;;;;;5145685;27;20162;-66
2021/08/30 07:31:12;;;;;;;23.95;16.27;;;19.80;99.90;;;;;;5144015;27;20397;-66
2021/08/30 07:33:38;;;;;;;30.02;17.30;;;19.90;99.90;;;;;;5147130;27;20162;-66
2021/08/30 07:36:04;;;;;;;25.33;15.75;;;19.70;99.90;;;;;;5146700;27;20174;-66
2021/08/30 07:38:29;;;;;;;26.02;17.05;;;19.60;99.90;;;;;;5146345;27;20154;-66
2021/08/30 07:40:55;;;;;;;24.85;16.33;;;19.60;99.90;;;;;;5143591;27;20162;-66
2021/08/30 07:43:21;;;;;;;24.65;16.10;;;19.90;99.90;;;;;;5145500;27;20239;-66
2021/08/30 07:45:47;;;;;;;24.55;16.52;;;20.00;99.90;;;;;;5146714;28;20166;-66
2021/08/30 07:48:12;;;;;;;28.13;16.40;;;19.90;99.90;;;;;;5146617;28;20173;-66
2021/08/30 07:50:38;;;;;;;22.85;16.40;;;19.90;99.90;;;;;;5146441;28;20154;-66
2021/08/30 07:53:04;;;;;;;29.48;16.38;;;19.80;99.90;;;;;;5143948;28;20221;-66
2021/08/30 07:55:34;;;;;;;26.35;17.45;;;20.20;99.90;;;;;;5145584;28;20169;-66
2021/08/30 07:58:00;;;;;;;28.52;16.05;;;20.50;99.90;;;;;;5126015;28;20163;-66
2021/08/30 08:00:26;;;;;;;27.65;17.27;;;20.30;99.90;;;;;;5126011;28;20648;-66
2021/08/30 08:02:52;;;;;;;27.08;16.25;;;20.20;99.90;;;;;;5123007;28;20174;-66
2021/08/30 08:05:18;;;;;;;27.05;16.75;;;20.20;99.90;;;;;;5126249;28;20190;-66
2021/08/30 08:07:44;;;;;;;31.77;16.52;;;20.20;99.90;;;;;;5125956;28;20248;-66
2021/08/30 08:10:10;;;;;;;29.23;19.63;;;20.10;99.90;;;;;;5124779;28;20435;-66
2021/08/30 08:12:36;;;;;;;25.05;17.17;;;20.60;99.90;;;;;;5122848;28;20169;-66
2021/08/30 08:15:03;;;;;;;33.80;16.63;;;20.50;99.90;;;;;;5125895;28;20162;-66
2021/08/30 08:17:28;;;;;;;27.70;17.33;;;20.50;99.90;;;;;;5125429;28;20173;-66
2021/08/30 08:19:54;;;;;;;22.52;16.20;;;20.60;99.90;;;;;;5125744;28;20158;-66
2021/08/30 08:22:20;;;;;;;23.85;17.05;;;20.50;99.90;;;;;;5122933;28;20173;-66
2021/08/30 08:24:45;;;;;;;27.10;16.35;;;20.70;99.90;;;;;;5125408;28;20198;-66
2021/08/30 08:27:11;;;;;;;24.98;18.73;;;20.60;99.90;;;;;;5125725;28;20163;-66
2021/08/30 08:29:36;;;;;;;28.67;18.50;;;21.00;99.90;;;;;;5124711;28;20183;-66
2021/08/30 08:32:02;;;;;;;25.30;17.58;;;20.90;99.90;;;;;;5122405;28;20398;-66
2021/08/30 08:34:28;;;;;;;27.73;18.42;;;21.00;99.90;;;;;;5125455;28;20173;-66
2021/08/30 08:37:07;;;;;;;24.67;17.85;;;21.20;99.90;;;;;;5125291;28;20166;-67
2021/08/30 08:39:33;;;;;;;27.33;17.90;;;21.30;99.90;;;;;;5125633;28;20166;-66
2021/08/30 08:41:58;;;;;;;24.77;16.33;;;21.70;99.90;;;;;;5122758;28;20182;-66
2021/08/30 08:44:24;;;;;;;27.63;16.27;;;21.60;99.90;;;;;;5124218;28;20202;-66
2021/08/30 08:46:50;;;;;;;28.70;16.55;;;21.50;99.90;;;;;;5125015;28;20532;-66
2021/08/30 08:49:18;;;;;;;31.40;17.25;;;21.30;99.90;;;;;;5125493;28;20151;-66
2021/08/30 08:51:43;;;;;;;25.70;16.80;;;21.30;99.90;;;;;;5125663;28;20173;-66
2021/08/30 08:54:09;;;;;;;32.00;18.63;;;21.40;99.90;;;;;;5128033;28;20171;-66
2021/08/30 08:56:35;;;;;;;30.05;18.50;;;21.60;99.90;;;;;;5129055;28;20162;-66
2021/08/30 08:59:01;;;;;;;31.90;17.92;;;21.60;99.90;;;;;;5128902;28;20170;-66
2021/08/30 09:01:27;;;;;;;35.92;19.10;;;21.50;99.90;;;;;;5126156;28;20301;-66
2021/08/30 09:03:56;;;;;;;31.13;19.05;;;21.60;99.90;;;;;;5128721;28;20682;-66
2021/08/30 09:06:40;;;;;;;34.92;19.73;;;21.50;99.90;;;;;;5129105;28;20212;-66
2021/08/30 09:09:16;;;;;;;35.65;20.05;;;21.40;99.90;;;;;;5128822;28;20229;-66
2021/08/30 09:11:51;;;;;;;35.53;19.35;;;21.30;99.90;;;;;;5126158;27;20565;-66
2021/08/30 09:14:26;;;;;;;32.97;19.88;;;21.30;99.90;;;;;;5128896;28;20158;-67
2021/08/30 09:17:07;;;;;;;35.22;20.75;;;21.40;99.90;;;;;;5128271;28;20170;-66
2021/08/30 09:19:34;;;;;;;36.35;20.55;;;21.40;99.90;;;;;;5128764;28;20161;-66
2021/08/30 09:22:02;;;;;;;33.00;20.15;;;21.60;99.90;;;;;;5125871;28;20173;-67
2021/08/30 09:24:29;;;;;;;33.65;20.13;;;21.70;99.90;;;;;;5128451;28;20198;-66
2021/08/30 09:26:56;;;;;;;35.38;21.70;;;22.10;99.90;;;;;;5128546;28;20543;-67
2021/08/30 09:29:27;;;;;;;29.55;21.48;;;22.30;99.90;;;;;;5128620;28;20161;-67
2021/08/30 09:32:04;;;;;;;34.38;23.27;;;22.40;99.90;;;;;;5125462;28;20220;-66
2021/08/30 09:34:40;;;;;;;33.33;20.83;;;22.40;99.90;;;;;;5128090;28;20263;-67
2021/08/30 09:37:13;;;;;;;35.33;23.10;;;22.50;99.90;;;;;;5127819;28;20182;-66
2021/08/30 09:39:54;;;;;;;34.65;21.60;;;22.50;99.90;;;;;;5128360;28;20167;-67
2021/08/30 09:42:20;;;;;;;31.20;20.83;;;22.40;99.90;;;;;;5125523;28;20574;-67
2021/08/30 09:44:46;;;;;;;38.10;22.35;;;22.40;99.90;;;;;;5126913;28;20190;-67
2021/08/30 09:47:17;;;;;;;32.53;22.48;;;22.40;99.90;;;;;;5127943;28;20189;-66
2021/08/30 09:49:54;;;;;;;31.63;22.60;;;22.60;99.90;;;;;;5128430;28;20190;-67
2021/08/30 09:52:23;;;;;;;29.60;21.85;;;22.80;99.90;;;;;;5125451;28;20169;-66
2021/08/30 09:54:50;;;;;;;34.92;20.60;;;22.70;99.90;;;;;;5127543;28;20161;-66
2021/08/30 09:57:16;;;;;;;39.58;22.45;;;22.70;99.90;;;;;;5127765;28;20163;-66
2021/08/30 09:59:43;;;;;;;32.70;20.80;;;22.80;99.90;;;;;;5128240;28;20237;-66
2021/08/30 10:02:11;;;;;;;35.90;21.08;;;23.00;99.90;;;;;;5124179;28;20163;-67
2021/08/30 10:04:39;;;;;;;29.90;20.48;;;22.70;99.90;;;;;;5128073;28;20201;-66
2021/08/30 10:07:06;;;;;;;35.53;20.50;;;22.60;99.90;;;;;;5127714;28;20237;-66
2021/08/30 10:09:33;;;;;;;27.40;18.90;;;22.80;99.90;;;;;;5127647;28;20202;-67
2021/08/30 10:11:59;;;;;;;29.83;18.98;;;23.00;99.90;;;;;;5124814;28;20234;-66
2021/08/30 10:14:29;;;;;;;27.70;18.77;;;23.00;99.90;;;;;;5127607;28;20159;-66
2021/08/30 10:16:59;;;;;;;28.15;19.88;;;23.00;99.90;;;;;;5127186;28;20577;-66
2021/08/30 10:19:35;;;;;;;28.45;19.02;;;23.30;99.90;;;;;;5127353;28;20162;-66
2021/08/30 10:22:13;;;;;;;26.92;18.40;;;23.20;99.90;;;;;;5124837;28;20182;-66
2021/08/30 10:24:41;;;;;;;26.33;17.10;;;23.30;99.90;;;;;;5127746;28;20186;-66
2021/08/30 10:27:09;;;;;;;27.73;17.88;;;23.30;99.90;;;;;;5126049;28;20159;-66
2021/08/30 10:29:38;;;;;;;27.38;16.95;;;23.20;99.90;;;;;;5127333;28;20198;-67
2021/08/30 10:32:05;;;;;;;28.48;17.92;;;23.30;99.90;;;;;;5123337;28;20171;-66
2021/08/30 10:34:33;;;;;;;25.90;15.95;;;23.30;99.90;;;;;;5126856;28;20159;-66
2021/08/30 10:37:00;;;;;;;22.45;16.38;;;23.30;99.90;;;;;;5126905;28;20167;-67
2021/08/30 10:39:39;;;;;;;28.35;16.42;;;23.30;99.90;;;;;;5126903;28;20167;-67
2021/08/30 10:42:06;;;;;;;25.20;17.73;;;23.50;99.90;;;;;;5124685;28;20239;-66
2021/08/30 10:44:32;;;;;;;24.92;16.08;;;23.40;99.90;;;;;;5126671;28;20188;-67
2021/08/30 10:47:00;;;;;;;28.50;16.85;;;23.40;99.90;;;;;;5126546;28;20554;-66
2021/08/30 10:49:32;;;;;;;25.77;17.02;;;23.30;99.90;;;;;;5126929;28;20159;-66
2021/08/30 10:52:11;;;;;;;29.23;16.00;;;23.20;99.90;;;;;;5122702;28;20647;-67
2021/08/30 10:54:55;;;;;;;23.35;16.60;;;23.20;99.90;;;;;;5126886;28;20170;-66
2021/08/30 10:57:38;;;;;;;27.42;16.63;;;23.10;99.90;;;;;;5126894;28;20167;-66
2021/08/30 11:00:06;;;;;;;19.63;15.75;;;23.10;99.90;;;;;;5125253;28;20227;-66
2021/08/30 11:02:39;;;;;;;27.83;15.65;;;23.00;99.90;;;;;;5124134;28;20166;-66
2021/08/30 11:05:08;;;;;;;21.13;15.93;;;23.00;99.90;;;;;;5126252;28;20166;-66
2021/08/30 11:07:35;;;;;;;25.63;15.93;;;23.00;99.90;;;;;;5126821;28;20180;-66
2021/08/30 11:10:02;;;;;;;27.55;16.98;;;23.00;99.90;;;;;;5125169;28;20301;-66
2021/08/30 11:12:28;;;;;;;26.35;17.38;;;23.00;99.90;;;;;;5124049;28;20163;-66
2021/08/30 11:14:55;;;;;;;31.23;16.77;;;22.90;99.90;;;;;;5126264;28;20246;-66
2021/08/30 11:17:41;;;;;;;30.70;16.25;;;23.00;99.90;;;;;;5126253;28;20222;-66
2021/08/30 11:20:08;;;;;;;25.13;16.90;;;23.40;99.90;;;;;;5126872;28;20497;-66
2021/08/30 11:22:34;;;;;;;21.48;14.82;;;23.60;99.90;;;;;;5123772;28;20175;-66
2021/08/30 11:25:01;;;;;;;27.08;16.08;;;23.90;99.90;;;;;;5126422;28;20159;-66
2021/08/30 11:27:30;;;;;;;22.27;15.35;;;24.00;99.90;;;;;;5126584;28;20161;-66
2021/08/30 11:29:58;;;;;;;24.60;16.02;;;24.30;99.90;;;;;;5126431;28;20379;-66
2021/08/30 11:32:27;;;;;;;24.98;16.20;;;24.40;99.90;;;;;;5123518;28;20169;-66
2021/08/30 11:34:55;;;;;;;19.75;15.07;;;24.60;99.90;;;;;;5126426;27;20159;-66
2021/08/30 11:37:23;;;;;;;22.55;15.07;;;24.60;99.90;;;;;;5126407;28;20198;-66
2021/08/30 11:39:51;;;;;;;17.60;13.93;;;24.40;99.90;;;;;;5126216;28;20192;-66
2021/08/30 11:42:22;;;;;;;18.55;14.90;;;24.30;99.90;;;;;;5123522;28;20235;-66
2021/08/30 11:44:48;;;;;;;30.40;16.42;;;23.90;99.90;;;;;;5126155;28;20182;-66
2021/08/30 11:47:16;;;;;;;22.02;15.57;;;23.70;99.90;;;;;;5126121;28;20174;-66
2021/08/30 11:49:45;;;;;;;23.77;17.35;;;23.60;99.90;;;;;;5125088;28;20159;-66
2021/08/30 11:52:14;;;;;;;27.50;17.92;;;23.30;99.90;;;;;;5123526;28;20170;-66
2021/08/30 11:54:42;;;;;;;25.10;18.35;;;23.30;99.90;;;;;;5126255;28;20162;-66
2021/08/30 11:57:11;;;;;;;30.88;18.20;;;23.50;99.90;;;;;;5126442;28;20155;-66
2021/08/30 11:59:49;;;;;;;30.52;19.52;;;23.40;99.90;;;;;;5126406;28;20154;-66
2021/08/30 12:02:16;;;;;;;26.52;17.05;;;23.30;99.90;;;;;;5123239;28;20174;-66
2021/08/30 12:04:42;;;;;;;24.38;17.75;;;23.40;99.90;;;;;;5126240;28;20249;-67
2021/08/30 12:07:10;;;;;;;25.02;15.88;;;23.30;99.90;;;;;;5126421;28;20158;-66
2021/08/30 12:09:49;;;;;;;26.83;16.70;;;23.40;99.90;;;;;;5126085;28;20271;-66
2021/08/30 12:12:16;;;;;;;25.52;16.55;;;23.50;99.90;;;;;;5123409;28;20170;-66
2021/08/30 12:15:05;;;;;;;23.75;17.42;;;23.80;99.90;;;;;;5126313;28;20179;-67
2021/08/30 12:17:34;;;;;;;23.73;16.02;;;24.00;99.90;;;;;;5125738;28;20169;-66
2021/08/30 12:20:09;;;;;;;22.92;16.63;;;24.10;99.90;;;;;;5124655;28;20159;-66
2021/08/30 12:22:49;;;;;;;23.85;16.25;;;24.10;99.90;;;;;;5123248;28;20615;-66
2021/08/30 12:25:29;;;;;;;25.50;16.80;;;24.00;99.90;;;;;;5126648;28;20170;-66
2021/08/30 12:27:56;;;;;;;20.13;15.65;;;23.90;99.90;;;;;;5129913;28;20197;-66
2021/08/30 12:30:24;;;;;;;22.00;15.75;;;23.90;99.90;;;;;;5130053;28;20174;-66
2021/08/30 12:32:59;;;;;;;23.60;15.93;;;23.70;99.90;;;;;;5126726;28;20198;-66
2021/08/30 12:35:42;;;;;;;26.98;16.38;;;23.70;99.90;;;;;;5129989;28;20166;-66
2021/08/30 12:38:10;;;;;;;21.85;15.35;;;23.80;99.90;;;;;;5128335;28;20268;-66